Time,TemperatureF,DewpointF,PressureIn,WindDirection,WindDirectionDegrees,WindSpeedMPH,WindSpeedGustMPH,Humidity,HourlyPrecipIn,Conditions,Clouds,dailyrainin,SoftwareType,DateUTC
2013-01-21 00:02:00,36.0,32.0,30.20,North,0,0.0,-999.0,86,-99.99,,,-99.99,,2013-01-21 08:02:00,
2013-01-21 00:12:00,36.0,32.0,30.20,North,0,0.0,-999.0,86,-99.99,,,-99.99,,2013-01-21 08:12:00,
2013-01-21 00:22:00,32.0,32.0,30.20,North,0,0.0,-999.0,100,-99.99,,,-99.99,,2013-01-21 08:22:00,
2013-01-21 00:32:00,34.0,32.0,30.20,North,0,0.0,-999.0,93,-99.99,,,-99.99,,2013-01-21 08:32:00,
2013-01-21 00:43:00,34.0,32.0,30.20,North,0,0.0,-999.0,93,-99.99,,,-99.99,,2013-01-21 08:43:00,
2013-01-21 00:53:00,36.0,32.0,30.20,North,0,0.0,-999.0,86,-99.99,,,-99.99,,2013-01-21 08:53:00,
2013-01-21 01:02:00,36.0,32.0,30.20,North,0,0.0,-999.0,86,-99.99,,,-99.99,,2013-01-21 09:02:00,
2013-01-21 01:11:00,36.0,32.0,30.20,North,0,0.0,-999.0,86,-99.99,,,-99.99,,2013-01-21 09:11:00,
2013-01-21 01:22:00,36.0,32.0,30.19,North,0,0.0,-999.0,86,-99.99,,,-99.99,,2013-01-21 09:22:00,
2013-01-21 01:32:00,36.0,32.0,30.19,North,0,0.0,-999.0,86,-99.99,,,-99.99,,2013-01-21 09:32:00,
2013-01-21 01:42:00,36.0,32.0,30.19,North,0,0.0,-999.0,86,-99.99,,,-99.99,,2013-01-21 09:42:00,
2013-01-21 01:53:00,32.0,32.0,30.20,North,0,0.0,-999.0,100,-99.99,,,-99.99,,2013-01-21 09:53:00,
2013-01-21 02:02:00,32.0,32.0,30.20,North,0,0.0,-999.0,100,-99.99,,,-99.99,,2013-01-21 10:02:00,
2013-01-21 02:12:00,32.0,32.0,30.20,North,0,0.0,-999.0,100,-99.99,,,-99.99,,2013-01-21 10:12:00,
2013-01-21 02:22:00,37.0,32.0,30.20,North,0,0.0,-999.0,80,-99.99,,,-99.99,,2013-01-21 10:22:00,
2013-01-21 02:32:00,36.0,32.0,30.20,North,0,0.0,-999.0,86,-99.99,,,-99.99,,2013-01-21 10:32:00,
2013-01-21 02:43:00,36.0,32.0,30.20,North,0,0.0,-999.0,86,-99.99,,,-99.99,,2013-01-21 10:43:00,
2013-01-21 02:52:00,37.0,32.0,30.20,North,0,0.0,-999.0,80,-99.99,,,-99.99,,2013-01-21 10:52:00,
2013-01-21 03:02:00,37.0,32.0,30.20,North,0,0.0,-999.0,80,-99.99,,,-99.99,,2013-01-21 11:02:00,
2013-01-21 03:11:00,37.0,32.0,30.20,North,0,0.0,-999.0,80,-99.99,,,-99.99,,2013-01-21 11:11:00,
2013-01-21 03:22:00,34.0,32.0,30.20,North,0,0.0,-999.0,93,-99.99,,,-99.99,,2013-01-21 11:22:00,
2013-01-21 03:32:00,34.0,32.0,30.19,North,0,0.0,-999.0,93,-99.99,,,-99.99,,2013-01-21 11:32:00,
2013-01-21 03:43:00,34.0,32.0,30.19,North,0,0.0,-999.0,93,-99.99,,,-99.99,,2013-01-21 11:43:00,
2013-01-21 03:53:00,34.0,32.0,30.19,NNW,340,7.0,-999.0,93,-99.99,,,-99.99,,2013-01-21 11:53:00,
2013-01-21 04:02:00,34.0,32.0,30.19,NNW,340,7.0,-999.0,93,-99.99,,,-99.99,,2013-01-21 12:02:00,
2013-01-21 04:12:00,34.0,32.0,30.19,NNW,340,7.0,-999.0,93,-99.99,,,-99.99,,2013-01-21 12:12:00,
2013-01-21 04:22:00,30.0,30.0,30.20,North,0,0.0,-999.0,100,-99.99,,,-99.99,,2013-01-21 12:22:00,
2013-01-21 04:32:00,34.0,32.0,30.20,North,0,0.0,-999.0,93,-99.99,,,-99.99,,2013-01-21 12:32:00,
2013-01-21 04:43:00,34.0,32.0,30.20,North,0,0.0,-999.0,93,-99.99,,,-99.99,,2013-01-21 12:43:00,
2013-01-21 04:53:00,34.0,32.0,30.19,NW,320,3.0,-999.0,93,-99.99,,,-99.99,,2013-01-21 12:53:00,
2013-01-21 05:02:00,34.0,32.0,30.19,NW,320,3.0,-999.0,93,-99.99,,,-99.99,,2013-01-21 13:02:00,
2013-01-21 05:12:00,34.0,32.0,30.19,NW,320,3.0,-999.0,93,-99.99,,,-99.99,,2013-01-21 13:12:00,
2013-01-21 05:22:00,34.0,32.0,30.19,North,0,0.0,-999.0,93,-99.99,,,-99.99,,2013-01-21 13:22:00,
2013-01-21 05:32:00,36.0,34.0,30.18,NW,320,7.0,-999.0,93,-99.99,,,-99.99,,2013-01-21 13:32:00,
2013-01-21 05:43:00,36.0,34.0,30.18,NW,320,7.0,-999.0,93,-99.99,,,-99.99,,2013-01-21 13:43:00,
2013-01-21 05:53:00,34.0,32.0,30.19,North,0,0.0,-999.0,93,-99.99,,,-99.99,,2013-01-21 13:53:00,
2013-01-21 06:02:00,34.0,32.0,30.19,North,0,0.0,-999.0,93,-99.99,,,-99.99,,2013-01-21 14:02:00,
2013-01-21 06:12:00,34.0,32.0,30.19,North,0,0.0,-999.0,93,-99.99,,,-99.99,,2013-01-21 14:12:00,
2013-01-21 06:22:00,32.0,32.0,30.18,North,0,0.0,-999.0,100,-99.99,,,-99.99,,2013-01-21 14:22:00,
2013-01-21 06:32:00,34.0,32.0,30.18,NNW,330,6.0,-999.0,93,-99.99,,,-99.99,,2013-01-21 14:32:00,
2013-01-21 06:43:00,36.0,32.0,30.18,NW,320,6.0,-999.0,86,-99.99,,,-99.99,,2013-01-21 14:43:00,
2013-01-21 06:53:00,36.0,32.0,30.18,NNW,330,6.0,-999.0,86,-99.99,,,-99.99,,2013-01-21 14:53:00,
2013-01-21 07:03:00,36.0,32.0,30.18,NNW,330,6.0,-999.0,86,-99.99,,,-99.99,,2013-01-21 15:03:00,
2013-01-21 07:12:00,36.0,32.0,30.18,NNW,330,6.0,-999.0,86,-99.99,,,-99.99,,2013-01-21 15:12:00,
2013-01-21 07:22:00,36.0,34.0,30.18,NNW,330,7.0,-999.0,93,-99.99,,,-99.99,,2013-01-21 15:22:00,
2013-01-21 07:32:00,36.0,34.0,30.18,North,0,0.0,-999.0,93,-99.99,,,-99.99,,2013-01-21 15:32:00,
2013-01-21 07:43:00,36.0,34.0,30.18,North,0,0.0,-999.0,93,-99.99,,,-99.99,,2013-01-21 15:43:00,
2013-01-21 07:53:00,34.0,32.0,30.18,North,0,0.0,-999.0,93,-99.99,,,-99.99,,2013-01-21 15:53:00,
2013-01-21 08:02:00,34.0,32.0,30.18,North,0,0.0,-999.0,93,-99.99,,,-99.99,,2013-01-21 16:02:00,
2013-01-21 08:12:00,34.0,32.0,30.18,North,0,0.0,-999.0,93,-99.99,,,-99.99,,2013-01-21 16:12:00,
2013-01-21 08:22:00,34.0,32.0,30.19,North,0,0.0,-999.0,93,-99.99,,,-99.99,,2013-01-21 16:22:00,
2013-01-21 08:32:00,34.0,34.0,30.20,North,0,0.0,-999.0,100,-99.99,,,-99.99,,2013-01-21 16:32:00,
2013-01-21 08:43:00,36.0,34.0,30.20,North,0,0.0,-999.0,93,-99.99,,,-99.99,,2013-01-21 16:43:00,
2013-01-21 08:53:00,36.0,34.0,30.20,North,0,0.0,-999.0,93,-99.99,,,-99.99,,2013-01-21 16:53:00,
2013-01-21 09:02:00,36.0,34.0,30.20,North,0,0.0,-999.0,93,-99.99,,,-99.99,,2013-01-21 17:02:00,
2013-01-21 09:12:00,36.0,34.0,30.20,North,0,0.0,-999.0,93,-99.99,,,-99.99,,2013-01-21 17:12:00,
2013-01-21 09:22:00,41.0,36.0,30.20,North,0,0.0,-999.0,80,-99.99,,,-99.99,,2013-01-21 17:22:00,
2013-01-21 09:32:00,43.0,37.0,30.21,North,0,0.0,-999.0,81,-99.99,,,-99.99,,2013-01-21 17:32:00,
2013-01-21 09:43:00,45.0,37.0,30.21,NW,320,3.0,-999.0,75,-99.99,,,-99.99,,2013-01-21 17:43:00,
2013-01-21 09:53:00,45.0,37.0,30.21,NW,320,3.0,-999.0,75,-99.99,,,-99.99,,2013-01-21 17:53:00,
2013-01-21 10:02:00,45.0,37.0,30.21,NW,320,3.0,-999.0,75,-99.99,,,-99.99,,2013-01-21 18:02:00,
2013-01-21 10:11:00,45.0,37.0,30.21,NW,320,3.0,-999.0,75,-99.99,,,-99.99,,2013-01-21 18:11:00,
2013-01-21 10:22:00,52.0,37.0,30.21,NNE,20,6.0,-999.0,57,-99.99,,,-99.99,,2013-01-21 18:22:00,
2013-01-21 10:33:00,52.0,37.0,30.22,North,0,0.0,-999.0,57,-99.99,,,-99.99,,2013-01-21 18:33:00,
2013-01-21 10:43:00,52.0,37.0,30.22,North,0,0.0,-999.0,57,-99.99,,,-99.99,,2013-01-21 18:43:00,
2013-01-21 10:53:00,54.0,36.0,30.22,North,10,6.0,-999.0,50,-99.99,,,-99.99,,2013-01-21 18:53:00,
2013-01-21 11:12:00,54.0,36.0,30.22,North,10,6.0,-999.0,50,-99.99,,,-99.99,,2013-01-21 19:12:00,
2013-01-21 11:22:00,54.0,36.0,30.22,NNE,20,5.0,-999.0,50,-99.99,,,-99.99,,2013-01-21 19:22:00,
2013-01-21 11:32:00,55.0,36.0,30.21,NNE,20,5.0,-999.0,47,-99.99,,,-99.99,,2013-01-21 19:32:00,
2013-01-21 11:43:00,55.0,36.0,30.21,North,0,0.0,-999.0,47,-99.99,,,-99.99,,2013-01-21 19:43:00,
2013-01-21 11:53:00,55.0,36.0,30.21,North,0,0.0,-999.0,47,-99.99,,,-99.99,,2013-01-21 19:53:00,
2013-01-21 12:02:00,55.0,36.0,30.21,North,0,0.0,-999.0,47,-99.99,,,-99.99,,2013-01-21 20:02:00,
2013-01-21 12:12:00,55.0,36.0,30.21,North,0,0.0,-999.0,47,-99.99,,,-99.99,,2013-01-21 20:12:00,
2013-01-21 12:22:00,57.0,36.0,30.20,North,0,0.0,-999.0,44,-99.99,,,-99.99,,2013-01-21 20:22:00,
2013-01-21 12:32:00,57.0,36.0,30.18,North,0,0.0,-999.0,44,-99.99,,,-99.99,,2013-01-21 20:32:00,
2013-01-21 12:43:00,57.0,36.0,30.18,North,0,0.0,-999.0,44,-99.99,,,-99.99,,2013-01-21 20:43:00,
2013-01-21 12:53:00,59.0,36.0,30.18,North,0,0.0,-999.0,41,-99.99,,,-99.99,,2013-01-21 20:53:00,
2013-01-21 13:02:00,59.0,36.0,30.18,North,0,0.0,-999.0,41,-99.99,,,-99.99,,2013-01-21 21:02:00,
2013-01-21 13:12:00,59.0,36.0,30.18,North,0,0.0,-999.0,41,-99.99,,,-99.99,,2013-01-21 21:12:00,
2013-01-21 13:22:00,59.0,37.0,30.18,North,0,0.0,-999.0,44,-99.99,,,-99.99,,2013-01-21 21:22:00,
2013-01-21 13:32:00,59.0,37.0,30.17,North,0,0.0,-999.0,44,-99.99,,,-99.99,,2013-01-21 21:32:00,
2013-01-21 13:43:00,59.0,37.0,30.17,North,0,0.0,-999.0,44,-99.99,,,-99.99,,2013-01-21 21:43:00,
2013-01-21 13:53:00,61.0,36.0,30.17,North,0,0.0,-999.0,38,-99.99,,,-99.99,,2013-01-21 21:53:00,
2013-01-21 14:02:00,61.0,36.0,30.17,North,0,0.0,-999.0,38,-99.99,,,-99.99,,2013-01-21 22:02:00,
2013-01-21 14:11:00,61.0,36.0,30.17,North,0,0.0,-999.0,38,-99.99,,,-99.99,,2013-01-21 22:11:00,
2013-01-21 14:22:00,61.0,36.0,30.16,North,0,0.0,-999.0,38,-99.99,,,-99.99,,2013-01-21 22:22:00,
2013-01-21 14:32:00,63.0,36.0,30.16,North,0,0.0,-999.0,36,-99.99,,,-99.99,,2013-01-21 22:32:00,
2013-01-21 14:43:00,63.0,36.0,30.16,North,0,0.0,-999.0,36,-99.99,,,-99.99,,2013-01-21 22:43:00,
2013-01-21 14:53:00,63.0,36.0,30.15,South,170,1.0,-999.0,36,-99.99,,,-99.99,,2013-01-21 22:53:00,
2013-01-21 15:02:00,63.0,36.0,30.15,South,170,1.0,-999.0,36,-99.99,,,-99.99,,2013-01-21 23:02:00,
2013-01-21 15:12:00,63.0,36.0,30.15,South,170,1.0,-999.0,36,-99.99,,,-99.99,,2013-01-21 23:12:00,
2013-01-21 15:22:00,61.0,36.0,30.16,North,0,0.0,-999.0,38,-99.99,,,-99.99,,2013-01-21 23:22:00,
2013-01-21 15:32:00,63.0,37.0,30.15,North,0,0.0,-999.0,39,-99.99,,,-99.99,,2013-01-21 23:32:00,
2013-01-21 15:43:00,63.0,37.0,30.15,North,0,0.0,-999.0,39,-99.99,,,-99.99,,2013-01-21 23:43:00,
2013-01-21 15:53:00,63.0,37.0,30.15,North,0,0.0,-999.0,39,-99.99,,,-99.99,,2013-01-21 23:53:00,
2013-01-21 16:02:00,63.0,37.0,30.15,North,0,0.0,-999.0,39,-99.99,,,-99.99,,2013-01-22 00:02:00,
2013-01-21 16:11:00,63.0,37.0,30.15,North,0,0.0,-999.0,39,-99.99,,,-99.99,,2013-01-22 00:11:00,
2013-01-21 16:22:00,61.0,37.0,30.15,North,0,0.0,-999.0,41,-99.99,,,-99.99,,2013-01-22 00:22:00,
2013-01-21 16:33:00,61.0,37.0,30.15,North,0,0.0,-999.0,41,-99.99,,,-99.99,,2013-01-22 00:33:00,
2013-01-21 16:43:00,61.0,39.0,30.15,North,0,0.0,-999.0,44,-99.99,,,-99.99,,2013-01-22 00:43:00,
2013-01-21 16:53:00,61.0,37.0,30.15,North,0,0.0,-999.0,41,-99.99,,,-99.99,,2013-01-22 00:53:00,
2013-01-21 17:02:00,61.0,37.0,30.15,North,0,0.0,-999.0,41,-99.99,,,-99.99,,2013-01-22 01:02:00,
2013-01-21 17:12:00,61.0,37.0,30.15,North,0,0.0,-999.0,41,-99.99,,,-99.99,,2013-01-22 01:12:00,
2013-01-21 17:22:00,57.0,39.0,30.14,North,0,0.0,-999.0,50,-99.99,,,-99.99,,2013-01-22 01:22:00,
2013-01-21 17:32:00,54.0,41.0,30.14,North,0,0.0,-999.0,62,-99.99,,,-99.99,,2013-01-22 01:32:00,
2013-01-21 17:43:00,54.0,41.0,30.14,North,0,0.0,-999.0,62,-99.99,,,-99.99,,2013-01-22 01:43:00,
2013-01-21 17:52:00,54.0,41.0,30.14,North,0,0.0,-999.0,62,-99.99,,,-99.99,,2013-01-22 01:52:00,
2013-01-21 18:02:00,54.0,41.0,30.14,North,0,0.0,-999.0,62,-99.99,,,-99.99,,2013-01-22 02:02:00,
2013-01-21 18:12:00,54.0,41.0,30.14,North,0,0.0,-999.0,62,-99.99,,,-99.99,,2013-01-22 02:12:00,
2013-01-21 18:22:00,52.0,39.0,30.14,North,0,0.0,-999.0,61,-99.99,,,-99.99,,2013-01-22 02:22:00,
2013-01-21 18:32:00,46.0,41.0,30.15,North,0,0.0,-999.0,81,-99.99,,,-99.99,,2013-01-22 02:32:00,
2013-01-21 18:43:00,46.0,41.0,30.15,North,0,0.0,-999.0,81,-99.99,,,-99.99,,2013-01-22 02:43:00,
2013-01-21 18:53:00,46.0,41.0,30.14,North,0,0.0,-999.0,81,-99.99,,,-99.99,,2013-01-22 02:53:00,
2013-01-21 19:02:00,46.0,41.0,30.14,North,0,0.0,-999.0,81,-99.99,,,-99.99,,2013-01-22 03:02:00,
2013-01-21 19:12:00,46.0,41.0,30.14,North,0,0.0,-999.0,81,-99.99,,,-99.99,,2013-01-22 03:12:00,
2013-01-21 19:22:00,43.0,39.0,30.15,North,0,0.0,-999.0,86,-99.99,,,-99.99,,2013-01-22 03:22:00,
2013-01-21 19:32:00,41.0,37.0,30.14,North,0,0.0,-999.0,86,-99.99,,,-99.99,,2013-01-22 03:32:00,
2013-01-21 19:42:00,41.0,37.0,30.14,North,0,0.0,-999.0,86,-99.99,,,-99.99,,2013-01-22 03:42:00,
2013-01-21 19:52:00,41.0,37.0,30.14,North,0,0.0,-999.0,86,-99.99,,,-99.99,,2013-01-22 03:52:00,
2013-01-21 20:02:00,41.0,37.0,30.14,North,0,0.0,-999.0,86,-99.99,,,-99.99,,2013-01-22 04:02:00,
2013-01-21 20:11:00,41.0,37.0,30.14,North,0,0.0,-999.0,86,-99.99,,,-99.99,,2013-01-22 04:11:00,
2013-01-21 20:22:00,39.0,37.0,30.14,North,0,0.0,-999.0,93,-99.99,,,-99.99,,2013-01-22 04:22:00,
2013-01-21 20:33:00,39.0,37.0,30.14,North,0,0.0,-999.0,93,-99.99,,,-99.99,,2013-01-22 04:33:00,
2013-01-21 20:42:00,39.0,37.0,30.14,North,0,0.0,-999.0,93,-99.99,,,-99.99,,2013-01-22 04:42:00,
2013-01-21 20:52:00,39.0,37.0,30.15,North,0,0.0,-999.0,93,-99.99,,,-99.99,,2013-01-22 04:52:00,
2013-01-21 21:12:00,39.0,37.0,30.15,North,0,0.0,-999.0,93,-99.99,,,-99.99,,2013-01-22 05:12:00,
2013-01-21 21:22:00,41.0,36.0,30.15,North,0,0.0,-999.0,80,-99.99,,,-99.99,,2013-01-22 05:22:00,
2013-01-21 21:32:00,45.0,36.0,30.15,North,0,0.0,-999.0,70,-99.99,,,-99.99,,2013-01-22 05:32:00,
2013-01-21 21:43:00,45.0,36.0,30.16,North,0,0.0,-999.0,70,-99.99,,,-99.99,,2013-01-22 05:43:00,
2013-01-21 21:53:00,45.0,36.0,30.16,North,0,0.0,-999.0,70,-99.99,,,-99.99,,2013-01-22 05:53:00,
2013-01-21 22:02:00,45.0,36.0,30.16,North,0,0.0,-999.0,70,-99.99,,,-99.99,,2013-01-22 06:02:00,
2013-01-21 22:11:00,45.0,36.0,30.16,North,0,0.0,-999.0,70,-99.99,,,-99.99,,2013-01-22 06:11:00,
2013-01-21 22:22:00,39.0,36.0,30.16,North,0,0.0,-999.0,86,-99.99,,,-99.99,,2013-01-22 06:22:00,
2013-01-21 22:33:00,39.0,36.0,30.16,North,0,0.0,-999.0,86,-99.99,,,-99.99,,2013-01-22 06:33:00,
2013-01-21 22:43:00,34.0,34.0,30.17,North,0,0.0,-999.0,100,-99.99,,,-99.99,,2013-01-22 06:43:00,
2013-01-21 22:52:00,36.0,34.0,30.17,North,0,0.0,-999.0,93,-99.99,,,-99.99,,2013-01-22 06:52:00,
2013-01-21 23:02:00,36.0,34.0,30.17,North,0,0.0,-999.0,93,-99.99,,,-99.99,,2013-01-22 07:02:00,
2013-01-21 23:11:00,36.0,34.0,30.17,North,0,0.0,-999.0,93,-99.99,,,-99.99,,2013-01-22 07:11:00,
2013-01-21 23:22:00,36.0,36.0,30.18,North,0,0.0,-999.0,100,-99.99,,,-99.99,,2013-01-22 07:22:00,
2013-01-21 23:32:00,37.0,36.0,30.18,North,0,0.0,-999.0,93,-99.99,,,-99.99,,2013-01-22 07:32:00,
2013-01-21 23:42:00,37.0,36.0,30.18,North,0,0.0,-999.0,93,-99.99,,,-99.99,,2013-01-22 07:42:00,
2013-01-21 23:52:00,37.0,36.0,30.17,North,0,0.0,-999.0,93,-99.99,,,-99.99,,2013-01-22 07:52:00,